createdAt,value
2022-10-31T00:01:12.634Z,13.03
2022-10-31T00:03:40.713Z,13.03
2022-10-31T00:06:09.146Z,13.07
2022-10-31T00:08:37.512Z,13.10
2022-10-31T00:11:05.930Z,13.12
2022-10-31T00:13:35.479Z,13.14
2022-10-31T00:16:03.553Z,13.19
2022-10-31T00:18:31.738Z,13.18
2022-10-31T00:21:03.207Z,13.22
2022-10-31T00:23:31.339Z,13.20
2022-10-31T00:26:03.081Z,13.16
2022-10-31T00:28:32.994Z,13.17
2022-10-31T00:31:04.322Z,13.22
2022-10-31T00:33:32.943Z,13.24
2022-10-31T00:36:00.986Z,13.27
2022-10-31T00:38:29.148Z,13.27
2022-10-31T00:40:57.443Z,13.29
2022-10-31T00:43:25.778Z,13.27
2022-10-31T00:45:53.892Z,13.25
2022-10-31T00:48:23.352Z,13.25
2022-10-31T00:50:51.475Z,13.23
2022-10-31T00:53:19.618Z,13.21
2022-10-31T00:55:47.836Z,13.18
2022-10-31T00:58:16.225Z,13.19
2022-10-31T01:00:46.813Z,13.20
2022-10-31T01:03:17.649Z,13.20
2022-10-31T01:05:47.232Z,13.22
2022-10-31T01:08:15.439Z,13.23
2022-10-31T01:10:43.579Z,13.24
2022-10-31T01:13:11.863Z,13.24
2022-10-31T01:15:40.037Z,13.22
2022-10-31T01:18:08.204Z,13.22
2022-10-31T01:20:36.434Z,13.21
2022-10-31T01:23:06.048Z,13.24
2022-10-31T01:25:34.226Z,13.25
2022-10-31T01:28:02.628Z,13.26
2022-10-31T01:30:30.927Z,13.28
2022-10-31T01:32:59.756Z,13.30
2022-10-31T01:35:28.000Z,13.32
2022-10-31T01:37:56.592Z,13.29
2022-10-31T01:40:26.114Z,13.27
2022-10-31T01:42:54.606Z,13.24
2022-10-31T01:45:22.996Z,13.23
2022-10-31T01:47:52.070Z,13.23
2022-10-31T01:50:30.881Z,13.23
2022-10-31T01:53:02.061Z,13.24
2022-10-31T01:55:35.369Z,13.25
2022-10-31T01:58:08.661Z,13.24
2022-10-31T02:00:37.419Z,13.23
2022-10-31T02:03:05.584Z,13.22
2022-10-31T02:05:34.711Z,13.21
2022-10-31T02:08:06.885Z,13.22
2022-10-31T02:10:38.428Z,13.23
2022-10-31T02:13:07.574Z,13.25
2022-10-31T02:15:38.577Z,13.24
2022-10-31T02:18:07.944Z,13.25
2022-10-31T02:20:44.657Z,13.28
2022-10-31T02:23:50.431Z,13.27
2022-10-31T02:26:46.063Z,13.27
2022-10-31T02:29:55.459Z,13.28
2022-10-31T02:32:30.243Z,13.29
2022-10-31T02:35:06.414Z,13.26
2022-10-31T02:37:39.808Z,13.27
2022-10-31T02:40:17.152Z,13.26
2022-10-31T02:42:51.726Z,13.24
2022-10-31T02:45:29.647Z,13.25
2022-10-31T02:48:04.218Z,13.24
2022-10-31T02:50:36.091Z,13.25
2022-10-31T02:53:05.156Z,13.24
2022-10-31T02:55:57.187Z,13.25
2022-10-31T02:58:28.583Z,13.25
2022-10-31T03:01:20.622Z,13.21
2022-10-31T03:04:05.149Z,13.25
2022-10-31T03:06:37.600Z,13.25
2022-10-31T03:09:15.097Z,13.23
2022-10-31T03:11:49.003Z,13.25
2022-10-31T03:14:23.945Z,13.25
2022-10-31T03:16:54.332Z,13.25
2022-10-31T03:19:28.707Z,13.28
2022-10-31T03:22:01.093Z,13.29
2022-10-31T03:24:40.647Z,13.30
2022-10-31T03:27:12.513Z,13.34
2022-10-31T03:29:44.293Z,13.34
2022-10-31T03:32:16.853Z,13.32
2022-10-31T03:34:48.175Z,13.32
2022-10-31T03:37:21.133Z,13.30
2022-10-31T03:39:51.537Z,13.29
2022-10-31T03:42:24.286Z,13.31
2022-10-31T03:44:58.624Z,13.31
2022-10-31T03:47:27.689Z,13.29
2022-10-31T03:49:57.964Z,13.28
2022-10-31T03:52:30.419Z,13.27
2022-10-31T03:55:03.266Z,13.29
2022-10-31T03:57:37.503Z,13.29
2022-10-31T04:00:08.638Z,13.28
2022-10-31T04:02:43.042Z,13.30
2022-10-31T04:05:14.652Z,13.30
2022-10-31T04:07:47.435Z,13.33
2022-10-31T04:10:17.829Z,13.35
2022-10-31T04:12:52.160Z,13.35
2022-10-31T04:15:21.775Z,13.35
2022-10-31T04:17:52.624Z,13.36
2022-10-31T04:20:32.409Z,13.33
2022-10-31T04:23:01.780Z,13.31
2022-10-31T04:25:29.889Z,13.30
2022-10-31T04:27:58.311Z,13.32
2022-10-31T04:30:26.765Z,13.33
2022-10-31T04:32:54.867Z,13.33
2022-10-31T04:35:24.470Z,13.37
2022-10-31T04:37:52.647Z,13.38
2022-10-31T04:40:20.837Z,13.38
2022-10-31T04:42:49.071Z,13.37
2022-10-31T04:45:20.247Z,13.37
2022-10-31T04:47:49.819Z,13.35
2022-10-31T04:50:18.406Z,13.38
2022-10-31T04:52:48.572Z,13.37
2022-10-31T04:55:17.109Z,13.38
2022-10-31T04:57:45.987Z,13.35
2022-10-31T05:00:16.684Z,13.35
2022-10-31T05:02:46.301Z,13.34
2022-10-31T05:05:15.120Z,13.33
2022-10-31T05:07:44.335Z,13.35
2022-10-31T05:10:16.344Z,13.35
2022-10-31T05:12:49.151Z,13.37
2022-10-31T05:15:18.173Z,13.39
2022-10-31T05:17:47.072Z,13.42
2022-10-31T05:20:16.654Z,13.44
2022-10-31T05:22:45.694Z,13.46
2022-10-31T05:25:15.778Z,13.47
2022-10-31T05:27:45.704Z,13.49
2022-10-31T05:30:16.382Z,13.51
2022-10-31T05:32:46.096Z,13.53
2022-10-31T05:35:16.109Z,13.54
2022-10-31T05:37:44.638Z,13.55
2022-10-31T05:40:16.402Z,13.58
2022-10-31T05:42:45.787Z,13.59
2022-10-31T05:45:16.041Z,13.61
2022-10-31T05:47:44.554Z,13.61
2022-10-31T05:50:12.787Z,13.60
2022-10-31T05:52:40.959Z,13.59
2022-10-31T05:55:09.692Z,13.58
2022-10-31T05:57:39.173Z,13.59
2022-10-31T06:00:08.599Z,13.61
2022-10-31T06:02:36.652Z,13.67
2022-10-31T06:05:05.133Z,13.67
2022-10-31T06:07:37.332Z,13.68
2022-10-31T06:10:07.512Z,13.66
2022-10-31T06:12:38.539Z,13.63
2022-10-31T06:15:10.345Z,13.64
2022-10-31T06:17:38.786Z,13.63
2022-10-31T06:20:08.664Z,13.63
2022-10-31T06:22:36.807Z,13.62
2022-10-31T06:25:05.470Z,13.63
2022-10-31T06:27:33.751Z,13.64
2022-10-31T06:30:01.858Z,13.63
2022-10-31T06:32:31.397Z,13.65
2022-10-31T06:34:59.496Z,13.66
2022-10-31T06:37:27.635Z,13.66
2022-10-31T06:39:55.808Z,13.64
2022-10-31T06:42:23.926Z,13.64
2022-10-31T06:44:52.073Z,13.64
2022-10-31T06:47:20.240Z,13.65
2022-10-31T06:49:50.112Z,13.65
2022-10-31T06:52:18.239Z,13.65
2022-10-31T06:54:46.604Z,13.64
2022-10-31T06:57:14.718Z,13.65
2022-10-31T06:59:42.858Z,13.66
2022-10-31T07:02:12.226Z,13.69
2022-10-31T07:04:40.353Z,13.68
2022-10-31T07:07:10.012Z,13.69
2022-10-31T07:09:38.212Z,13.72
2022-10-31T07:12:06.601Z,13.73
2022-10-31T07:14:34.778Z,13.75
2022-10-31T07:17:02.859Z,13.75
2022-10-31T07:19:31.131Z,13.76
2022-10-31T07:21:59.492Z,13.79
2022-10-31T07:24:29.083Z,13.79
2022-10-31T07:26:57.318Z,13.78
2022-10-31T07:29:25.512Z,13.79
2022-10-31T07:31:54.184Z,13.78
2022-10-31T07:34:22.374Z,13.83
2022-10-31T07:36:53.048Z,13.81
2022-10-31T07:39:21.154Z,13.82
2022-10-31T07:41:50.612Z,13.83
2022-10-31T07:44:18.740Z,13.86
2022-10-31T07:46:46.815Z,13.88
2022-10-31T07:49:14.942Z,13.92
2022-10-31T07:51:46.441Z,13.95
2022-10-31T07:54:15.285Z,13.94
2022-10-31T07:56:43.576Z,13.96
2022-10-31T07:59:13.081Z,13.97
2022-10-31T08:01:41.093Z,14.00
2022-10-31T08:04:09.412Z,14.00
2022-10-31T08:06:37.540Z,14.01
2022-10-31T08:09:05.773Z,14.01
2022-10-31T08:11:33.871Z,14.02
2022-10-31T08:14:01.917Z,14.04
2022-10-31T08:16:31.540Z,14.05
2022-10-31T08:18:59.704Z,14.05
2022-10-31T08:21:27.886Z,14.09
2022-10-31T08:23:55.997Z,14.10
2022-10-31T08:26:24.254Z,14.12
2022-10-31T08:28:53.575Z,14.14
2022-10-31T08:31:32.160Z,14.16
2022-10-31T08:34:03.589Z,14.23
2022-10-31T08:36:31.866Z,14.24
2022-10-31T08:39:02.064Z,14.27
2022-10-31T08:41:31.048Z,14.31
2022-10-31T08:43:59.165Z,14.33
2022-10-31T08:46:27.269Z,14.38
2022-10-31T08:48:55.460Z,14.40
2022-10-31T08:51:24.913Z,14.44
2022-10-31T08:53:53.118Z,14.47
2022-10-31T08:56:21.356Z,14.51
2022-10-31T08:58:49.577Z,14.55
2022-10-31T09:01:17.828Z,14.59
2022-10-31T09:03:46.129Z,14.65
2022-10-31T09:06:14.329Z,14.68
2022-10-31T09:08:44.091Z,14.68
2022-10-31T09:11:12.273Z,14.70
2022-10-31T09:13:41.555Z,14.70
2022-10-31T09:16:09.969Z,14.70
2022-10-31T09:18:38.212Z,14.67
2022-10-31T09:21:06.665Z,14.66
2022-10-31T09:23:34.760Z,14.64
2022-10-31T09:26:04.652Z,14.64
2022-10-31T09:28:33.821Z,14.63
2022-10-31T09:31:02.110Z,14.61
2022-10-31T09:33:30.384Z,14.59
2022-10-31T09:36:00.497Z,14.59
2022-10-31T09:38:28.632Z,14.55
2022-10-31T09:41:10.063Z,14.56
2022-10-31T09:43:49.596Z,14.54
2022-10-31T09:46:28.803Z,14.54
2022-10-31T09:49:18.793Z,14.56
2022-10-31T09:51:53.335Z,14.57
2022-10-31T09:54:28.795Z,14.55
2022-10-31T09:57:01.308Z,14.57
2022-10-31T09:59:34.998Z,14.62
2022-10-31T10:02:07.208Z,14.69
2022-10-31T10:04:45.647Z,14.75
2022-10-31T10:07:21.516Z,14.79
2022-10-31T10:09:49.772Z,14.83
2022-10-31T10:12:35.084Z,14.86
2022-10-31T10:15:26.481Z,14.88
2022-10-31T10:18:02.944Z,14.93
2022-10-31T10:20:38.355Z,14.99
2022-10-31T10:23:25.808Z,15.04
2022-10-31T10:26:02.877Z,15.09
2022-10-31T10:28:39.460Z,15.11
2022-10-31T10:31:12.632Z,15.18
2022-10-31T10:33:44.828Z,15.19
2022-10-31T10:36:20.542Z,15.22
2022-10-31T10:38:54.679Z,15.27
2022-10-31T10:41:29.320Z,15.36
2022-10-31T10:44:01.653Z,15.43
2022-10-31T10:46:57.025Z,15.49
2022-10-31T10:49:32.336Z,15.54
2022-10-31T10:52:19.457Z,15.62
2022-10-31T10:54:59.279Z,15.73
2022-10-31T10:57:41.823Z,15.82
2022-10-31T11:00:21.448Z,15.90
2022-10-31T11:02:50.442Z,15.98
2022-10-31T11:05:27.008Z,16.05
2022-10-31T11:07:55.339Z,16.20
2022-10-31T11:10:23.673Z,16.32
2022-10-31T11:13:09.125Z,16.47
2022-10-31T11:15:51.594Z,16.59
2022-10-31T11:20:55.591Z,16.64
2022-10-31T11:23:25.688Z,16.63
2022-10-31T11:25:57.101Z,16.70
2022-10-31T11:28:25.315Z,16.82
2022-10-31T11:30:58.161Z,16.92
2022-10-31T11:33:31.899Z,16.96
2022-10-31T11:36:00.973Z,16.98
2022-10-31T11:38:35.793Z,16.93
2022-10-31T11:41:12.659Z,16.89
2022-10-31T11:43:47.586Z,16.91
2022-10-31T11:46:23.517Z,16.92
2022-10-31T11:48:54.847Z,16.92
2022-10-31T11:51:24.300Z,16.91
2022-10-31T11:53:58.222Z,16.81
2022-10-31T11:56:38.789Z,16.73
2022-10-31T11:59:16.992Z,16.64
2022-10-31T12:01:52.733Z,16.54
2022-10-31T12:04:25.574Z,16.48
2022-10-31T12:06:55.994Z,16.47
2022-10-31T12:09:26.443Z,16.44
2022-10-31T12:12:08.972Z,16.37
2022-10-31T12:14:46.294Z,16.33
2022-10-31T12:17:18.166Z,16.34
2022-10-31T12:20:00.534Z,16.30
2022-10-31T12:22:38.666Z,16.32
2022-10-31T12:25:22.546Z,16.33
2022-10-31T12:28:06.188Z,16.33
2022-10-31T12:30:48.907Z,16.24
2022-10-31T12:33:32.069Z,16.12
2022-10-31T12:36:15.426Z,16.09
2022-10-31T12:39:04.598Z,16.01
2022-10-31T12:41:48.282Z,15.97
2022-10-31T12:44:38.143Z,15.98
2022-10-31T12:47:27.929Z,15.97
2022-10-31T12:50:11.160Z,15.92
2022-10-31T12:52:53.932Z,15.86
2022-10-31T12:55:42.920Z,15.79
2022-10-31T12:58:16.792Z,15.75
2022-10-31T13:00:50.826Z,15.76
2022-10-31T13:03:30.100Z,15.71
2022-10-31T13:06:05.676Z,15.69
2022-10-31T13:08:42.751Z,15.67
2022-10-31T13:11:15.346Z,15.62
2022-10-31T13:13:49.513Z,15.58
2022-10-31T13:16:20.858Z,15.53
2022-10-31T13:18:55.553Z,15.49
2022-10-31T13:21:27.919Z,15.47
2022-10-31T13:24:00.152Z,15.45
2022-10-31T13:26:39.117Z,15.42
2022-10-31T13:29:17.361Z,15.38
2022-10-31T13:31:46.051Z,15.36
2022-10-31T13:34:25.345Z,15.32
2022-10-31T13:37:04.163Z,15.32
2022-10-31T13:39:52.096Z,15.28
2022-10-31T13:42:26.193Z,15.30
2022-10-31T13:44:54.430Z,15.27
2022-10-31T13:47:28.337Z,15.27
2022-10-31T13:50:22.155Z,15.26
2022-10-31T13:52:51.743Z,15.29
2022-10-31T13:55:43.659Z,15.32
2022-10-31T13:58:25.988Z,15.31
2022-10-31T14:01:19.641Z,15.31
2022-10-31T14:04:06.164Z,15.28
2022-10-31T14:06:42.184Z,15.29
2022-10-31T14:09:24.600Z,15.29
2022-10-31T14:11:53.291Z,15.30
2022-10-31T14:14:23.062Z,15.34
2022-10-31T14:16:57.583Z,15.34
2022-10-31T14:19:26.999Z,15.33
2022-10-31T14:21:55.236Z,15.32
2022-10-31T14:24:36.914Z,15.29
2022-10-31T14:27:26.898Z,15.21
2022-10-31T14:29:55.308Z,15.18
2022-10-31T14:32:25.445Z,15.16
2022-10-31T14:34:56.329Z,15.14
2022-10-31T14:37:47.433Z,15.12
2022-10-31T14:40:38.068Z,15.12
2022-10-31T14:43:33.520Z,15.06
2022-10-31T14:46:04.801Z,15.11
2022-10-31T14:49:00.537Z,15.08
2022-10-31T14:51:37.511Z,15.06
2022-10-31T14:54:08.617Z,15.07
2022-10-31T14:56:44.315Z,15.08
2022-10-31T14:59:18.714Z,15.09
2022-10-31T15:01:58.313Z,14.99
2022-10-31T15:04:29.207Z,14.98
2022-10-31T15:07:04.588Z,14.97
2022-10-31T15:09:34.491Z,14.94
2022-10-31T15:12:24.970Z,14.91
2022-10-31T15:14:53.761Z,14.88
2022-10-31T15:17:22.647Z,14.85
2022-10-31T15:19:51.111Z,14.80
2022-10-31T15:22:21.586Z,14.79
2022-10-31T15:24:57.122Z,14.76
2022-10-31T15:27:27.380Z,14.73
2022-10-31T15:29:57.045Z,14.69
2022-10-31T15:32:26.910Z,14.66
2022-10-31T15:34:56.876Z,14.63
2022-10-31T15:37:26.532Z,14.62
2022-10-31T15:39:55.301Z,14.61
2022-10-31T15:42:27.095Z,14.59
2022-10-31T15:45:02.095Z,14.54
2022-10-31T15:47:33.057Z,14.46
2022-10-31T15:50:02.927Z,14.45
2022-10-31T15:52:34.854Z,14.41
2022-10-31T15:55:06.348Z,14.37
2022-10-31T15:57:35.881Z,14.34
2022-10-31T16:00:06.197Z,14.36
2022-10-31T16:02:34.518Z,14.34
2022-10-31T16:05:03.814Z,14.33
2022-10-31T16:07:32.540Z,14.33
2022-10-31T16:10:02.056Z,14.33
2022-10-31T16:12:33.958Z,14.35
2022-10-31T16:15:02.899Z,14.39
2022-10-31T16:17:33.628Z,14.42
2022-10-31T16:20:04.237Z,14.42
2022-10-31T16:22:34.993Z,14.41
2022-10-31T16:25:07.584Z,14.42
2022-10-31T16:27:38.930Z,14.23
2022-10-31T16:30:31.103Z,14.19
2022-10-31T16:33:02.829Z,14.19
2022-10-31T16:35:36.004Z,14.16
2022-10-31T16:38:04.589Z,14.18
2022-10-31T16:40:34.016Z,14.17
2022-10-31T16:43:03.498Z,14.16
2022-10-31T16:45:33.357Z,14.15
2022-10-31T16:48:06.476Z,14.17
2022-10-31T16:50:35.321Z,14.19
2022-10-31T16:53:18.717Z,14.17
2022-10-31T16:55:57.330Z,14.17
2022-10-31T16:58:28.193Z,14.16
2022-10-31T17:00:56.524Z,14.18
2022-10-31T17:03:26.406Z,14.19
2022-10-31T17:05:56.199Z,14.15
2022-10-31T17:08:24.980Z,14.14
2022-10-31T17:10:54.495Z,14.13
2022-10-31T17:13:26.793Z,14.13
2022-10-31T17:15:58.006Z,14.13
2022-10-31T17:18:28.122Z,14.13
2022-10-31T17:20:59.191Z,14.12
2022-10-31T17:23:38.142Z,14.11
2022-10-31T17:26:09.019Z,14.10
2022-10-31T17:28:37.456Z,14.09
2022-10-31T17:31:06.639Z,14.12
2022-10-31T17:33:36.708Z,14.10
2022-10-31T17:36:05.663Z,14.15
2022-10-31T17:38:34.100Z,14.10
2022-10-31T17:41:11.099Z,14.11
2022-10-31T17:43:40.080Z,14.11
2022-10-31T17:46:08.476Z,14.12
2022-10-31T17:48:39.129Z,14.14
2022-10-31T17:51:08.509Z,14.14
2022-10-31T17:53:36.752Z,14.15
2022-10-31T17:56:06.285Z,14.19
2022-10-31T17:58:36.241Z,14.22
2022-10-31T18:01:11.174Z,14.21
2022-10-31T18:03:41.156Z,14.21
2022-10-31T18:06:11.054Z,14.18
2022-10-31T18:08:41.110Z,14.19
2022-10-31T18:11:11.023Z,14.19
2022-10-31T18:13:39.843Z,14.19
2022-10-31T18:16:12.134Z,14.20
2022-10-31T18:18:42.356Z,14.19
2022-10-31T18:21:10.573Z,14.19
2022-10-31T18:23:38.734Z,14.20
2022-10-31T18:26:06.925Z,14.20
2022-10-31T18:28:35.198Z,14.12
2022-10-31T18:31:04.048Z,14.05
2022-10-31T18:33:32.191Z,14.03
2022-10-31T18:36:07.247Z,14.02
2022-10-31T18:38:35.558Z,14.06
2022-10-31T18:41:03.560Z,14.08
2022-10-31T18:43:31.724Z,14.12
2022-10-31T18:46:02.618Z,14.12
2022-10-31T18:48:31.489Z,14.11
2022-10-31T18:51:05.887Z,14.11
2022-10-31T18:53:36.357Z,14.12
2022-10-31T18:56:08.832Z,14.13
2022-10-31T18:58:37.180Z,14.13
2022-10-31T19:01:08.618Z,14.14
2022-10-31T19:03:37.606Z,14.14
2022-10-31T19:06:07.074Z,14.15
2022-10-31T19:08:37.560Z,14.15
2022-10-31T19:11:07.159Z,14.13
2022-10-31T19:13:35.770Z,14.13
2022-10-31T19:16:09.746Z,14.12
2022-10-31T19:18:38.684Z,14.12
2022-10-31T19:21:07.929Z,14.13
2022-10-31T19:23:37.756Z,14.13
2022-10-31T19:26:06.698Z,14.13
2022-10-31T19:28:36.697Z,14.14
2022-10-31T19:31:05.605Z,14.14
2022-10-31T19:33:36.128Z,14.12
2022-10-31T19:36:08.377Z,14.13
2022-10-31T19:38:39.116Z,14.13
2022-10-31T19:41:09.365Z,14.14
2022-10-31T19:43:37.570Z,14.13
2022-10-31T19:46:17.415Z,14.12
2022-10-31T19:48:57.419Z,14.12
2022-10-31T19:51:25.601Z,14.12
2022-10-31T19:53:55.667Z,14.12
2022-10-31T19:56:25.370Z,14.11
2022-10-31T19:58:53.581Z,14.13
2022-10-31T20:01:23.435Z,14.13
2022-10-31T20:03:52.795Z,14.15
2022-10-31T20:06:23.908Z,14.17
2022-10-31T20:08:52.882Z,14.18
2022-10-31T20:11:23.164Z,14.19
2022-10-31T20:13:51.540Z,14.19
2022-10-31T20:16:19.872Z,14.19
2022-10-31T20:18:48.137Z,14.19
2022-10-31T20:21:18.816Z,14.16
2022-10-31T20:23:47.586Z,14.11
2022-10-31T20:26:19.401Z,14.01
2022-10-31T20:28:49.250Z,13.95
2022-10-31T20:31:19.702Z,13.92
2022-10-31T20:33:47.844Z,13.89
2022-10-31T20:36:19.619Z,13.84
2022-10-31T20:38:48.703Z,13.79
2022-10-31T20:41:17.656Z,13.73
2022-10-31T20:43:46.081Z,13.70
2022-10-31T20:46:17.947Z,13.67
2022-10-31T20:48:47.077Z,13.61
2022-10-31T20:51:17.227Z,13.61
2022-10-31T20:53:45.344Z,13.59
2022-10-31T20:56:15.263Z,13.62
2022-10-31T20:58:44.603Z,13.62
2022-10-31T21:01:17.016Z,13.62
2022-10-31T21:03:46.216Z,13.57
2022-10-31T21:06:15.022Z,13.48
2022-10-31T21:08:44.569Z,13.52
2022-10-31T21:11:14.568Z,13.53
2022-10-31T21:13:44.357Z,13.50
2022-10-31T21:16:14.006Z,13.50
2022-10-31T21:18:45.392Z,13.49
2022-10-31T21:21:17.785Z,13.46
2022-10-31T21:23:46.011Z,13.44
2022-10-31T21:26:19.230Z,13.43
2022-10-31T21:28:47.757Z,13.39
2022-10-31T21:31:17.963Z,13.39
2022-10-31T21:33:48.019Z,13.38
2022-10-31T21:36:17.400Z,13.35
2022-10-31T21:38:45.520Z,13.36
2022-10-31T21:41:15.828Z,13.35
2022-10-31T21:43:45.617Z,13.33
2022-10-31T21:46:16.138Z,13.35
2022-10-31T21:48:44.745Z,13.33
2022-10-31T21:51:16.563Z,13.33
2022-10-31T21:54:02.371Z,13.31
2022-10-31T21:56:30.676Z,13.27
2022-10-31T21:58:58.828Z,13.24
2022-10-31T22:01:29.190Z,13.23
2022-10-31T22:03:57.528Z,13.22
2022-10-31T22:06:28.468Z,13.23
2022-10-31T22:08:59.942Z,13.25
2022-10-31T22:11:29.233Z,13.26
2022-10-31T22:13:59.821Z,13.22
2022-10-31T22:16:29.838Z,13.21
2022-10-31T22:18:59.681Z,13.21
2022-10-31T22:21:29.987Z,13.17
2022-10-31T22:24:03.358Z,13.15
2022-10-31T22:26:33.338Z,13.13
2022-10-31T22:29:05.090Z,13.12
2022-10-31T22:31:34.309Z,13.11
2022-10-31T22:34:02.804Z,13.09
2022-10-31T22:36:33.309Z,13.07
2022-10-31T22:39:01.629Z,13.07
2022-10-31T22:41:33.491Z,13.05
2022-10-31T22:44:02.995Z,13.05
2022-10-31T22:46:32.884Z,13.01
2022-10-31T22:49:02.503Z,13.03
2022-10-31T22:51:34.376Z,13.05
2022-10-31T22:54:02.626Z,13.01
2022-10-31T22:56:33.359Z,12.98
2022-10-31T22:59:02.773Z,12.97
2022-10-31T23:01:33.112Z,12.95
2022-10-31T23:04:01.942Z,12.94
2022-10-31T23:06:32.684Z,12.95
2022-10-31T23:09:01.546Z,12.95
2022-10-31T23:11:33.436Z,12.95
2022-10-31T23:14:13.911Z,12.92
2022-10-31T23:16:45.122Z,12.92
2022-10-31T23:19:16.224Z,12.92
2022-10-31T23:21:59.841Z,12.94
2022-10-31T23:24:35.660Z,12.93
2022-10-31T23:27:09.816Z,12.90
2022-10-31T23:29:44.493Z,12.87
2022-10-31T23:32:16.444Z,12.86
2022-10-31T23:34:45.241Z,12.87
2022-10-31T23:37:16.211Z,12.87
2022-10-31T23:39:44.696Z,12.86
2022-10-31T23:42:13.872Z,12.89
2022-10-31T23:44:42.112Z,12.89
2022-10-31T23:47:10.342Z,12.90
2022-10-31T23:49:38.602Z,12.93
2022-10-31T23:52:07.278Z,12.91
2022-10-31T23:54:37.121Z,12.91
2022-10-31T23:57:05.716Z,12.91
2022-10-31T23:59:34.106Z,12.90
